No particular awareness of the weather is required.    There are no Weather-warnings


Meteo18 Weather Cam more information Meteo18 Weather Cam


Thunder radar more information blitzortung!


Rain radar more information rain snow radar


Visit our other weather sites:

Template documentation
and downloads

And another site



Weather Underground History page Text

Daily Summary for April 24, 2017 Units:  English    Metric   Both
« Previous Day
Next Day »
Daily Weekly Monthly Yearly Custom
  High: Low: Average:
Temperature: TemperatureC °F 2.9 °F 11.1 °F
Dew Point: DewpointC °F -0.4 °F 2 °F
Humidity: Humidity % 35 % 55 %
Wind Speed: WindSpeedKMH mph 0.0 mph 2.5 mph
Wind Gust: WindSpeedGustKMH mph - -
Wind:- - SSW
Pressure: PressurehPa in 1012.1 in -
Precipitation: 0.0 in    
Historical Graphs
 
 
Tabular Data for April 24, 2017
Time Temperature Dew Point Pressure Wind Wind Speed Wind Gust Humidity Rainfall Rate (Hourly)
TemperatureC °F DewpointC °F PressurehPa in Calm     Humidity % HourlyPrecipMM in
00:02 7.2 °F 1.1 °F 1022.2 in NNW 3.2 mph 6.4 mph 65 % 0.0 in
00:12 7.0 °F 1.1 °F 1021.9 in NE 3.2 mph 6.4 mph 66 % 0.0 in
00:17 6.9 °F 1.0 °F 1021.9 in Calm   9.7 mph 66 % 0.0 in
00:22 6.9 °F 1.0 °F 1021.9 in North 3.2 mph 9.7 mph 66 % 0.0 in
00:32 6.8 °F 0.9 °F 1021.9 in North 4.8 mph 8.0 mph 66 % 0.0 in
00:37 6.9 °F 1.0 °F 1021.9 in North 4.8 mph 8.0 mph 66 % 0.0 in
00:42 6.9 °F 1.0 °F 1021.6 in NNE 3.2 mph 11.3 mph 66 % 0.0 in
00:52 6.8 °F 0.9 °F 1021.6 in NNE 3.2 mph 9.7 mph 66 % 0.0 in
00:57 6.8 °F 0.9 °F 1021.6 in NNE 4.8 mph 6.4 mph 66 % 0.0 in
01:02 6.7 °F 0.8 °F 1021.6 in NNW 1.6 mph 6.4 mph 66 % 0.0 in
01:07 6.7 °F 0.8 °F 1021.6 in NNW 1.6 mph 6.4 mph 66 % 0.0 in
01:12 6.6 °F 0.7 °F 1021.6 in NNW 3.2 mph 6.4 mph 66 % 0.0 in
01:17 6.5 °F 0.8 °F 1021.6 in Calm   6.4 mph 67 % 0.0 in
01:22 6.5 °F 0.8 °F 1021.6 in NNW 1.6 mph 6.4 mph 67 % 0.0 in
01:32 6.4 °F 0.7 °F 1021.6 in WNW 1.6 mph 6.4 mph 67 % 0.0 in
01:37 6.2 °F 0.5 °F 1021.2 in Calm   4.8 mph 67 % 0.0 in
01:42 6.2 °F 0.7 °F 1021.2 in NW 1.6 mph 4.8 mph 68 % 0.0 in
01:47 6.2 °F 0.5 °F 1021.2 in NNW 1.6 mph 3.2 mph 67 % 0.0 in
01:52 6.1 °F 0.6 °F 1021.2 in Calm   3.2 mph 68 % 0.0 in
01:57 6.1 °F 0.6 °F 1021.2 in NW 1.6 mph 3.2 mph 68 % 0.0 in
02:02 6.1 °F 0.6 °F 1021.2 in North 1.6 mph 3.2 mph 68 % 0.0 in
02:12 5.9 °F 0.4 °F 1020.9 in Calm   3.2 mph 68 % 0.0 in
02:17 5.9 °F 0.4 °F 1020.9 in NW 1.6 mph 3.2 mph 68 % 0.0 in
02:22 5.9 °F 0.4 °F 1020.9 in North 1.6 mph 3.2 mph 68 % 0.0 in
02:27 6.0 °F 0.5 °F 1020.9 in NNW 1.6 mph 6.4 mph 68 % 0.0 in
02:32 5.9 °F 0.4 °F 1020.5 in North 1.6 mph 6.4 mph 68 % 0.0 in
02:37 5.9 °F 0.4 °F 1020.5 in Calm   6.4 mph 68 % 0.0 in
02:42 5.8 °F 0.4 °F 1020.5 in Calm   6.4 mph 68 % 0.0 in
02:52 5.8 °F 0.4 °F 1020.5 in NNW 1.6 mph 6.4 mph 68 % 0.0 in
02:57 5.8 °F 0.4 °F 1020.5 in NNW 1.6 mph 4.8 mph 68 % 0.0 in
03:02 5.8 °F 0.4 °F 1020.5 in Calm   4.8 mph 68 % 0.0 in
03:12 5.8 °F 0.4 °F 1020.2 in North 1.6 mph 6.4 mph 68 % 0.0 in
03:17 5.7 °F 0.5 °F 1020.2 in NW 3.2 mph 6.4 mph 69 % 0.0 in
03:22 5.6 °F 0.4 °F 1020.2 in NNE 1.6 mph 6.4 mph 69 % 0.0 in
03:32 5.3 °F 0.3 °F 1020.2 in NNW 3.2 mph 6.4 mph 70 % 0.0 in
03:42 5.2 °F 0.2 °F 1020.2 in North 1.6 mph 6.4 mph 70 % 0.0 in
03:47 5.1 °F 0.3 °F 1019.9 in Calm   6.4 mph 71 % 0.0 in
03:52 5.0 °F 0.2 °F 1019.9 in Calm   6.4 mph 71 % 0.0 in
03:57 4.9 °F 0.1 °F 1019.9 in NNE 1.6 mph 4.8 mph 71 % 0.0 in
04:02 4.8 °F 0.2 °F 1019.9 in NNE 3.2 mph 4.8 mph 72 % 0.0 in
04:12 4.6 °F 0.2 °F 1019.9 in North 3.2 mph 4.8 mph 73 % 0.0 in
04:17 4.6 °F 0.2 °F 1019.9 in Calm   4.8 mph 73 % 0.0 in
04:22 4.4 °F 0.2 °F 1019.9 in North 1.6 mph 4.8 mph 74 % 0.0 in
04:27 4.4 °F 0.2 °F 1019.9 in NNW 3.2 mph 4.8 mph 74 % 0.0 in
04:32 4.4 °F 0.2 °F 1019.5 in Calm   4.8 mph 74 % 0.0 in
04:37 4.4 °F 0.2 °F 1019.5 in Calm   4.8 mph 74 % 0.0 in
04:42 4.3 °F 0.3 °F 1019.5 in NNE 3.2 mph 4.8 mph 75 % 0.0 in
04:47 4.2 °F 0.2 °F 1019.5 in North 1.6 mph 6.4 mph 75 % 0.0 in
04:52 4.1 °F 0.1 °F 1019.5 in NNE 1.6 mph 6.4 mph 75 % 0.0 in
05:02 4.0 °F 0.2 °F 1019.5 in Calm   6.4 mph 76 % 0.0 in
05:12 3.8 °F 0.0 °F 1019.5 in Calm   3.2 mph 76 % 0.0 in
05:22 2.9 °F -0.4 °F 1019.2 in NNW 1.6 mph 1.6 mph 79 % 0.0 in
05:32 3.4 °F -0.1 °F 1019.2 in North 3.2 mph 3.2 mph 78 % 0.0 in
05:42 3.8 °F 0.0 °F 1019.2 in NNW 1.6 mph 4.8 mph 76 % 0.0 in
05:52 3.8 °F 0.0 °F 1018.8 in North 4.8 mph 4.8 mph 76 % 0.0 in
05:57 3.7 °F 0.0 °F 1018.8 in NNW 1.6 mph 4.8 mph 77 % 0.0 in
06:02 3.6 °F -0.1 °F 1018.8 in NNW 1.6 mph 4.8 mph 77 % 0.0 in
06:12 3.6 °F -0.1 °F 1018.8 in NNE 1.6 mph 4.8 mph 77 % 0.0 in
06:17 3.5 °F -0.2 °F 1018.8 in Calm   4.8 mph 77 % 0.0 in
06:22 3.4 °F -0.2 °F 1018.8 in Calm   4.8 mph 77 % 0.0 in
06:27 3.4 °F -0.1 °F 1018.8 in NNW 1.6 mph 4.8 mph 78 % 0.0 in
06:32 3.5 °F -0.2 °F 1018.8 in NNW 1.6 mph 4.8 mph 77 % 0.0 in
06:37 3.6 °F -0.1 °F 1018.8 in NNW 1.6 mph 4.8 mph 77 % 0.0 in
06:42 3.7 °F -0.1 °F 1018.8 in North 1.6 mph 3.2 mph 76 % 0.0 in
06:52 3.7 °F -0.1 °F 1018.5 in North 1.6 mph 3.2 mph 76 % 0.0 in
06:57 3.8 °F 0.0 °F 1018.5 in Calm   3.2 mph 76 % 0.0 in
07:02 3.9 °F -0.1 °F 1018.5 in NNW 1.6 mph 3.2 mph 75 % 0.0 in
07:12 4.1 °F 0.1 °F 1018.5 in NNW 1.6 mph 3.2 mph 75 % 0.0 in
07:17 4.2 °F 0.0 °F 1018.5 in North 1.6 mph 3.2 mph 74 % 0.0 in
07:22 4.2 °F 0.0 °F 1018.5 in North 1.6 mph 3.2 mph 74 % 0.0 in
07:32 4.1 °F 0.1 °F 1018.5 in North 3.2 mph 4.8 mph 75 % 0.0 in
07:37 4.2 °F 0.2 °F 1018.5 in North 3.2 mph 4.8 mph 75 % 0.0 in
07:42 4.3 °F 0.3 °F 1018.5 in Calm   4.8 mph 75 % 0.0 in
07:52 4.8 °F 0.7 °F 1018.5 in Calm   4.8 mph 75 % 0.0 in
08:02 5.3 °F 1.0 °F 1018.5 in North 1.6 mph 4.8 mph 74 % 0.0 in
08:07 5.5 °F 1.0 °F 1018.5 in Calm   4.8 mph 73 % 0.0 in
08:12 5.7 °F 1.0 °F 1018.5 in North 3.2 mph 4.8 mph 72 % 0.0 in
08:17 6.1 °F 1.4 °F 1018.5 in Calm   4.8 mph 72 % 0.0 in
08:22 6.3 °F 1.4 °F 1018.5 in North 1.6 mph 4.8 mph 71 % 0.0 in
08:32 6.6 °F 1.7 °F 1018.5 in NE 1.6 mph 6.4 mph 71 % 0.0 in
08:37 6.9 °F 1.6 °F 1018.5 in ENE 1.6 mph 6.4 mph 69 % 0.0 in
08:42 7.0 °F 1.7 °F 1018.5 in ENE 1.6 mph 6.4 mph 69 % 0.0 in
08:47 7.1 °F 1.8 °F 1018.5 in NE 1.6 mph 6.4 mph 69 % 0.0 in
08:52 7.3 °F 2.0 °F 1018.5 in NE 1.6 mph 3.2 mph 69 % 0.0 in
09:02 7.7 °F 2.2 °F 1018.5 in NE 1.6 mph 4.8 mph 68 % 0.0 in
09:12 8.1 °F 2.3 °F 1018.5 in Calm   6.4 mph 67 % 0.0 in
09:17 8.2 °F 2.0 °F 1018.5 in ENE 3.2 mph 6.4 mph 65 % 0.0 in
09:22 8.3 °F 2.1 °F 1018.5 in NE 1.6 mph 8.0 mph 65 % 0.0 in
09:32 8.6 °F 2.6 °F 1018.2 in NNE 1.6 mph 9.7 mph 66 % 0.0 in
09:37 8.8 °F 2.6 °F 1018.2 in NE 8.0 mph 9.7 mph 65 % 0.0 in
09:42 8.9 °F 2.5 °F 1018.2 in ENE 6.4 mph 11.3 mph 64 % 0.0 in
09:47 9.1 °F 2.4 °F 1018.2 in ENE 4.8 mph 11.3 mph 63 % 0.0 in
09:52 9.4 °F 2.7 °F 1018.2 in East 4.8 mph 9.7 mph 63 % 0.0 in
09:57 9.5 °F 2.4 °F 1018.2 in Calm   9.7 mph 61 % 0.0 in
10:02 9.8 °F 2.9 °F 1018.2 in NE 4.8 mph 9.7 mph 62 % 0.0 in
10:12 10.0 °F 2.6 °F 1018.2 in NNE 6.4 mph 8.0 mph 60 % 0.0 in
10:17 10.4 °F 3.0 °F 1017.8 in NE 4.8 mph 8.0 mph 60 % 0.0 in
10:22 10.7 °F 2.5 °F 1018.2 in ENE 1.6 mph 8.0 mph 57 % 0.0 in
10:32 11.0 °F 1.8 °F 1018.2 in NNE 6.4 mph 6.4 mph 53 % 0.0 in
10:37 11.1 °F 2.4 °F 1018.2 in NE 4.8 mph 4.8 mph 55 % 0.0 in
10:42 11.2 °F 2.5 °F 1018.2 in North 1.6 mph 8.0 mph 55 % 0.0 in
10:52 12.1 °F 3.1 °F 1017.8 in NNE 3.2 mph 6.4 mph 54 % 0.0 in
10:57 12.0 °F 1.9 °F 1017.8 in Calm   6.4 mph 50 % 0.0 in
11:02 12.3 °F 2.4 °F 1017.8 in ENE 3.2 mph 8.0 mph 51 % 0.0 in
11:12 12.4 °F 2.3 °F 1017.8 in Calm   6.4 mph 50 % 0.0 in
11:17 12.6 °F 2.2 °F 1017.8 in ENE 1.6 mph 6.4 mph 49 % 0.0 in
11:22 12.6 °F 1.9 °F 1017.8 in NE 1.6 mph 6.4 mph 48 % 0.0 in
11:32 12.9 °F 2.2 °F 1017.8 in East 1.6 mph 11.3 mph 48 % 0.0 in
11:37 13.1 °F 1.7 °F 1017.8 in NNE 3.2 mph 11.3 mph 46 % 0.0 in
11:42 13.1 °F 1.7 °F 1017.8 in ENE 8.0 mph 11.3 mph 46 % 0.0 in
11:52 13.5 °F 2.1 °F 1017.8 in NE 6.4 mph 11.3 mph 46 % 0.0 in
11:57 13.6 °F 1.9 °F 1017.8 in NNE 6.4 mph 11.3 mph 45 % 0.0 in
12:02 13.7 °F 2.6 °F 1017.8 in NNE 9.7 mph 9.7 mph 47 % 0.0 in
12:12 13.8 °F 2.7 °F 1017.5 in ENE 3.2 mph 11.3 mph 47 % 0.0 in
12:17 13.7 °F 2.0 °F 1017.5 in North 1.6 mph 11.3 mph 45 % 0.0 in
12:22 13.8 °F 2.7 °F 1017.5 in NNE 4.8 mph 11.3 mph 47 % 0.0 in
12:32 14.2 °F 2.7 °F 1017.5 in NE 9.7 mph 11.3 mph 46 % 0.0 in
12:42 14.4 °F 3.2 °F 1017.2 in ENE 6.4 mph 14.5 mph 47 % 0.0 in
12:47 14.7 °F 2.9 °F 1017.2 in ENE 4.8 mph 14.5 mph 45 % 0.0 in
12:57 15.0 °F 2.2 °F 1017.2 in NW 8.0 mph 9.7 mph 42 % 0.0 in
13:02 15.0 °F 2.2 °F 1016.8 in NNE 1.6 mph 11.3 mph 42 % 0.0 in
13:12 15.3 °F 2.1 °F 1016.5 in North 6.4 mph 11.3 mph 41 % 0.0 in
13:17 15.2 °F 2.0 °F 1016.5 in NE 3.2 mph 12.9 mph 41 % 0.0 in
13:22 15.2 °F 1.7 °F 1016.5 in WNW 1.6 mph 12.9 mph 40 % 0.0 in
13:32 15.6 °F 2.7 °F 1016.1 in WNW 8.0 mph 17.7 mph 42 % 0.0 in
13:42 15.8 °F 2.2 °F 1016.1 in NE 1.6 mph 17.7 mph 40 % 0.0 in
13:47 16.1 °F 2.5 °F 1016.1 in WNW 1.6 mph 11.3 mph 40 % 0.0 in
13:52 16.3 °F 3.4 °F 1016.1 in North 1.6 mph 11.3 mph 42 % 0.0 in
13:57 16.6 °F 2.6 °F 1016.1 in North 3.2 mph 11.3 mph 39 % 0.0 in
14:02 16.6 °F 1.5 °F 1015.8 in NNW 3.2 mph 11.3 mph 36 % 0.0 in
14:12 16.9 °F 1.3 °F 1015.8 in West 1.6 mph 8.0 mph 35 % 0.0 in
14:17 16.6 °F 1.1 °F 1015.8 in NW 3.2 mph 9.7 mph 35 % 0.0 in
14:22 16.9 °F 2.1 °F 1015.8 in WSW 4.8 mph 9.7 mph 37 % 0.0 in
14:32 17.1 °F 2.3 °F 1015.5 in NNE 4.8 mph 9.7 mph 37 % 0.0 in
14:42 17.4 °F 2.2 °F 1015.5 in South 3.2 mph 9.7 mph 36 % 0.0 in
14:47 17.7 °F 2.0 °F 1015.5 in Calm   4.8 mph 35 % 0.0 in
14:52 17.8 °F 2.9 °F 1015.5 in ENE 1.6 mph 4.8 mph 37 % 0.0 in
14:57 17.8 °F 2.9 °F 1015.5 in East 6.4 mph 8.0 mph 37 % 0.0 in
15:02 17.9 °F 3.0 °F 1015.5 in NNW 3.2 mph 8.0 mph 37 % 0.0 in
15:07 18.1 °F 3.6 °F 1015.1 in Calm   8.0 mph 38 % 0.0 in
15:12 18.1 °F 2.8 °F 1015.1 in WNW 4.8 mph 8.0 mph 36 % 0.0 in
15:17 17.8 °F 3.3 °F 1015.1 in NW 3.2 mph 9.7 mph 38 % 0.0 in
15:22 18.2 °F 2.9 °F 1014.8 in East 4.8 mph 9.7 mph 36 % 0.0 in
15:32 18.4 °F 3.4 °F 1014.8 in ENE 1.6 mph 9.7 mph 37 % 0.0 in
15:37 18.7 °F 3.7 °F 1014.8 in WNW 3.2 mph 8.0 mph 37 % 0.0 in
15:42 18.8 °F 3.8 °F 1014.4 in WSW 1.6 mph 8.0 mph 37 % 0.0 in
15:47 18.9 °F 3.5 °F 1014.4 in NNW 4.8 mph 8.0 mph 36 % 0.0 in
15:52 18.6 °F 3.2 °F 1014.4 in NNE 3.2 mph 8.0 mph 36 % 0.0 in
15:57 18.4 °F 3.1 °F 1014.4 in NNW 4.8 mph 11.3 mph 36 % 0.0 in
16:02 18.2 °F 3.6 °F 1014.4 in NNE 6.4 mph 11.3 mph 38 % 0.0 in
16:12 18.1 °F 3.2 °F 1014.1 in NE 11.3 mph 11.3 mph 37 % 0.0 in
16:17 18.1 °F 3.2 °F 1014.1 in East 6.4 mph 12.9 mph 37 % 0.0 in
16:22 18.4 °F 3.1 °F 1014.1 in SW 1.6 mph 12.9 mph 36 % 0.0 in
16:27 18.4 °F 2.7 °F 1013.8 in ESE 1.6 mph 12.9 mph 35 % 0.0 in
16:32 18.4 °F 3.1 °F 1013.8 in East 3.2 mph 12.9 mph 36 % 0.0 in
16:37 18.5 °F 3.5 °F 1013.8 in West 3.2 mph 8.0 mph 37 % 0.0 in
16:42 18.7 °F 4.1 °F 1013.8 in NW 4.8 mph 8.0 mph 38 % 0.0 in
16:52 18.7 °F 2.9 °F 1013.4 in WNW 1.6 mph 11.3 mph 35 % 0.0 in
16:57 18.7 °F 2.9 °F 1013.4 in Calm   11.3 mph 35 % 0.0 in
17:02 19.1 °F 3.3 °F 1013.4 in WNW 3.2 mph 11.3 mph 35 % 0.0 in
17:12 18.4 °F 2.7 °F 1013.4 in Calm   11.3 mph 35 % 0.0 in
17:17 18.6 °F 4.0 °F 1013.1 in North 6.4 mph 11.3 mph 38 % 0.0 in
17:22 18.6 °F 4.4 °F 1013.1 in NNE 3.2 mph 11.3 mph 39 % 0.0 in
17:32 18.3 °F 4.5 °F 1013.1 in West 1.6 mph 11.3 mph 40 % 0.0 in
17:42 18.2 °F 4.0 °F 1013.1 in WNW 3.2 mph 11.3 mph 39 % 0.0 in
17:47 18.2 °F 4.0 °F 1013.1 in WNW 1.6 mph 11.3 mph 39 % 0.0 in
17:52 18.2 °F 4.4 °F 1013.1 in West 1.6 mph 11.3 mph 40 % 0.0 in
18:02 18.4 °F 4.9 °F 1013.1 in North 8.0 mph 11.3 mph 41 % 0.0 in
18:12 18.4 °F 3.8 °F 1013.1 in NNW 8.0 mph 11.3 mph 38 % 0.0 in
18:17 18.6 °F 3.6 °F 1013.1 in NW 3.2 mph 14.5 mph 37 % 0.0 in
18:22 18.4 °F 3.8 °F 1012.8 in NNW 1.6 mph 14.5 mph 38 % 0.0 in
18:32 18.6 °F 4.4 °F 1012.8 in NNW 3.2 mph 11.3 mph 39 % 0.0 in
18:42 18.4 °F 4.6 °F 1012.8 in Calm   12.9 mph 40 % 0.0 in
18:47 18.3 °F 4.1 °F 1012.8 in NNW 1.6 mph 12.9 mph 39 % 0.0 in
18:57 18.0 °F 3.5 °F 1012.8 in NNW 3.2 mph 12.9 mph 38 % 0.0 in
19:02 17.9 °F 4.1 °F 1012.8 in NW 9.7 mph 12.9 mph 40 % 0.0 in
19:12 17.3 °F 3.9 °F 1012.8 in North 3.2 mph 12.9 mph 41 % 0.0 in
19:17 17.1 °F 3.7 °F 1012.8 in North 3.2 mph 11.3 mph 41 % 0.0 in
19:22 16.9 °F 3.9 °F 1012.8 in NNW 3.2 mph 11.3 mph 42 % 0.0 in
19:27 16.7 °F 4.1 °F 1012.8 in NW 1.6 mph 9.7 mph 43 % 0.0 in
19:32 16.6 °F 3.6 °F 1012.8 in North 4.8 mph 9.7 mph 42 % 0.0 in
19:37 16.7 °F 4.4 °F 1012.8 in North 4.8 mph 11.3 mph 44 % 0.0 in
19:42 16.6 °F 4.0 °F 1012.8 in NW 6.4 mph 11.3 mph 43 % 0.0 in
19:47 16.4 °F 3.8 °F 1012.4 in North 1.6 mph 9.7 mph 43 % 0.0 in
19:52 16.2 °F 3.3 °F 1012.4 in NNW 4.8 mph 9.7 mph 42 % 0.0 in
19:57 16.1 °F 2.8 °F 1012.4 in NNW 3.2 mph 8.0 mph 41 % 0.0 in
20:02 15.9 °F 3.0 °F 1012.4 in NW 3.2 mph 8.0 mph 42 % 0.0 in
20:12 15.4 °F 3.2 °F 1012.4 in Calm   8.0 mph 44 % 0.0 in
20:17 15.1 °F 2.9 °F 1012.4 in NW 1.6 mph 6.4 mph 44 % 0.0 in
20:22 15.1 °F 2.9 °F 1012.4 in Calm   6.4 mph 44 % 0.0 in
20:27 14.9 °F 2.8 °F 1012.4 in NW 3.2 mph 3.2 mph 44 % 0.0 in
20:32 14.8 °F 2.7 °F 1012.4 in NW 1.6 mph 3.2 mph 44 % 0.0 in
20:37 14.6 °F 2.8 °F 1012.4 in NW 1.6 mph 4.8 mph 45 % 0.0 in
20:42 14.4 °F 2.9 °F 1012.1 in NNW 1.6 mph 4.8 mph 46 % 0.0 in
20:47 14.2 °F 2.7 °F 1012.1 in NW 1.6 mph 3.2 mph 46 % 0.0 in
20:57 13.9 °F 2.8 °F 1012.1 in Calm   3.2 mph 47 % 0.0 in
21:02 13.7 °F 2.9 °F 1012.1 in Calm   3.2 mph 48 % 0.0 in
21:12 13.2 °F 3.0 °F 1012.1 in Calm   3.2 mph 50 % 0.0 in
21:17 13.1 °F 3.2 °F 1012.4 in Calm     51 % 0.0 in
21:27 12.6 °F 3.0 °F 1012.1 in Calm     52 % 0.0 in
21:32 12.6 °F 3.0 °F 1012.1 in Calm     52 % 0.0 in
21:42 12.6 °F 2.7 °F 1012.4 in Calm     51 % 0.0 in
21:47 12.6 °F 2.7 °F 1012.4 in NNW 3.2 mph 3.2 mph 51 % 0.0 in
21:52 12.4 °F 2.8 °F 1012.4 in NNW 3.2 mph 3.2 mph 52 % 0.0 in
21:57 12.3 °F 2.7 °F 1012.4 in NNW 1.6 mph 4.8 mph 52 % 0.0 in
22:02 12.3 °F 2.7 °F 1012.4 in North 1.6 mph 4.8 mph 52 % 0.0 in
22:12 12.1 °F 2.8 °F 1012.8 in Calm   4.8 mph 53 % 0.0 in
22:17 12.0 °F 2.7 °F 1012.8 in Calm   4.8 mph 53 % 0.0 in
22:22 11.9 °F 2.6 °F 1012.8 in Calm   4.8 mph 53 % 0.0 in
22:27 12.0 °F 2.7 °F 1012.8 in NW 1.6 mph 3.2 mph 53 % 0.0 in
22:32 11.9 °F 2.6 °F 1012.8 in Calm   3.2 mph 53 % 0.0 in
22:37 11.9 °F 2.6 °F 1012.8 in WNW 1.6 mph 3.2 mph 53 % 0.0 in
22:42 11.9 °F 2.6 °F 1012.8 in NW 3.2 mph 3.2 mph 53 % 0.0 in
22:47 11.9 °F 2.9 °F 1012.8 in NW 1.6 mph 4.8 mph 54 % 0.0 in
22:52 11.8 °F 2.8 °F 1012.8 in NNW 1.6 mph 4.8 mph 54 % 0.0 in
22:57 11.8 °F 2.8 °F 1012.8 in NW 1.6 mph 4.8 mph 54 % 0.0 in
23:02 11.8 °F 2.8 °F 1012.8 in NW 1.6 mph 4.8 mph 54 % 0.0 in
23:12 11.5 °F 2.8 °F 1012.8 in NW 1.6 mph 4.8 mph 55 % 0.0 in
23:17 11.4 °F 2.7 °F 1012.8 in NW 1.6 mph 4.8 mph 55 % 0.0 in
23:22 11.4 °F 2.9 °F 1012.8 in NW 1.6 mph 4.8 mph 56 % 0.0 in
23:32 11.2 °F 3.0 °F 1012.4 in NW 3.2 mph 4.8 mph 57 % 0.0 in
23:37 11.1 °F 2.9 °F 1012.4 in NW 1.6 mph 4.8 mph 57 % 0.0 in
23:42 10.9 °F 2.7 °F 1012.4 in NW 1.6 mph 4.8 mph 57 % 0.0 in
23:47 10.9 °F 3.0 °F 1012.4 in NNW 1.6 mph 4.8 mph 58 % 0.0 in
23:52 10.9 °F 2.7 °F 1012.4 in NW 1.6 mph 4.8 mph 57 % 0.0 in
23:57 10.9 °F 3.0 °F 1012.4 in NW 3.2 mph 4.8 mph 58 % 0.0 in
Meteo18
Compliments of Weather Underground - 4 mb

Script developed by  Jim McMurry - jmcmurry@mwt.net Adapted for the template by  Wim van der Kuil - Leuven-Template.eu

You find our weather info also at:

European Weather Network

Weather Underground

Equipment we use:

Weather-station
Davis Vue

Weather-program
Meteobridge

Weather-server
Raspberry PI 2 B+

Provider
1 and 1

Davis Vue

Meteobridge

Raspberry PI 2 B+

1 and 1